Flight Track Log - Related Links

Times and Time Zones

All times are in EDT time to prevent confusion due to time zone crossing. See the N524SR flight status page for this flight to view local times or setup timezone preferences in your user account.

Time Position Orientation Groundspeed Altitude Reporting Facility
EDT Latitude Longitude Course Direction KTS MPH feet Rate Location/Type
Sun 03:54:59 PM 30.3178 -81.5306 131° Southeast 89 102 600  Level Jacksonville Center
Sun 03:55:36 PM 30.3072 -81.5164 131° Southeast 121 139 1,100 694 Climbing Jacksonville Center
Sun 03:57:00 PM 30.3444 -81.4844 37° Northeast 136 157 2,000 662 Climbing Jacksonville Center
Sun 03:58:01 PM 30.3758 -81.5008 336° Northwest 119 137 2,700 639 Climbing Jacksonville Center
Sun 03:59:02 PM 30.4033 -81.5222 326° Northwest 122 140 3,300 626 Climbing Jacksonville Center
Sun 03:59:56 PM 30.4244 -81.5508 311° West 107 123 3,900 661 Climbing Jacksonville Center
Sun 04:00:51 PM 30.4392 -81.5769 303° West 123 142 4,500 626 Climbing Jacksonville Center
Sun 04:01:51 PM 30.4606 -81.6081 309° West 116 133 5,100 545 Climbing Jacksonville Center
Sun 04:02:52 PM 30.4836 -81.6392 311° West 121 139 5,600 492 Climbing Jacksonville Center
Sun 04:03:53 PM 30.5111 -81.6653 321° Northwest 128 147 6,100 496 Climbing Jacksonville Center
Sun 04:04:53 PM 30.5303 -81.6964 306° West 115 132 6,600 496 Climbing Jacksonville Center
Sun 04:05:54 PM 30.5494 -81.7275 306° West 116 133 7,100 492 Climbing Jacksonville Center
Sun 04:06:55 PM 30.5683 -81.7561 307° West 117 135 7,600 561 Climbing Jacksonville Center
Sun 04:07:41 PM 30.5853 -81.7803 309° West 117 135 8,100 575 Climbing Jacksonville Center
Sun 04:08:08 PM 30.5936 -81.7922 309° West 116 133 8,300 500 Climbing Jacksonville Center
Sun 04:08:41 PM 30.6064 -81.8089 312° West 117 135 8,600 500 Climbing Jacksonville Center
Sun 04:08:56 PM 30.6086 -81.8186 285° West 115 132 8,700 300 Climbing Jacksonville Center
Sun 04:09:41 PM 30.6211 -81.8328 316° Northwest 117 135 8,900 393 Climbing Jacksonville Center
Sun 04:09:57 PM 30.6275 -81.8472 297° West 115 132 9,100 400 Climbing Jacksonville Center
Sun 04:10:41 PM 30.6467 -81.8711 313° West 117 135 9,300 300 Climbing Jacksonville Center
Sun 04:10:57 PM 30.6486 -81.8761 294° West 116 133 9,400 500 Climbing Jacksonville Center
Sun 04:11:41 PM 30.6636 -81.9025 303° West 117 135 9,800 448 Climbing Jacksonville Center
Sun 04:12:04 PM 30.6719 -81.9094 324° Northwest 121 139 9,900 200 Climbing Jacksonville Center
Sun 04:12:41 PM 30.6847 -81.9336 302° West 130 150 10,000 109 Climbing Jacksonville Center
Sun 04:12:59 PM 30.6889 -81.9433 296° West 130 150 10,000  Level Jacksonville Center
Sun 04:13:41 PM 30.7100 -81.9697 313° West 136 157 10,000  Level Jacksonville Center
Sun 04:14:05 PM 30.7183 -81.9817 309° West 141 162 10,000  Level Jacksonville Center
Sun 04:14:41 PM 30.7331 -82.0033 308° West 141 162 10,000  Level Jacksonville Center
Sun 04:14:54 PM 30.7353 -82.0103 290° West 140 161 10,000  Level Jacksonville Center
Sun 04:15:41 PM 30.7564 -82.0392 310° West 141 162 10,000  Level Jacksonville Center
Sun 04:15:55 PM 30.7586 -82.0464 290° West 137 158 10,000  Level Jacksonville Center
Sun 04:16:49 PM 30.7817 -82.0778 311° West 135 155 10,000  Level Jacksonville Center
Sun 04:17:41 PM 30.7986 -82.1089 302° West 146 168 10,000  Level Jacksonville Center
Sun 04:18:41 PM 30.8281 -82.1353 322° Northwest 146 168 10,000  Level Jacksonville Center
Sun 04:19:41 PM 30.8594 -82.1594 327° Northwest 141 162 10,000  Level Jacksonville Center
Sun 04:20:41 PM 30.8889 -82.1858 322° Northwest 141 162 10,000  Level Jacksonville Center
Sun 04:21:41 PM 30.9244 -82.2097 330° Northwest 136 157 10,000  Level Jacksonville Center
Sun 04:22:41 PM 30.9581 -82.2386 324° Northwest 136 157 10,000  Level Jacksonville Center
Sun 04:23:41 PM 30.9917 -82.2650 326° Northwest 141 162 10,000  Level Jacksonville Center
Sun 04:24:41 PM 31.0231 -82.2939 322° Northwest 141 162 10,000  Level Jacksonville Center
Sun 04:25:41 PM 31.0586 -82.3203 328° Northwest 146 168 10,000  Level Jacksonville Center
Sun 04:26:41 PM 31.0942 -82.3467 328° Northwest 146 168 10,000  Level Jacksonville Center
Sun 04:27:41 PM 31.1278 -82.3708 328° Northwest 146 168 10,000  Level Jacksonville Center
Sun 04:28:41 PM 31.1614 -82.3997 324° Northwest 146 168 10,000  Level Jacksonville Center
Sun 04:29:41 PM 31.1928 -82.4264 324° Northwest 146 168 10,000  Level Jacksonville Center
Sun 04:30:41 PM 31.2283 -82.4553 325° Northwest 146 168 10,000  Level Jacksonville Center
Sun 04:31:41 PM 31.2597 -82.4819 324° Northwest 146 168 10,000  Level Jacksonville Center
Sun 04:32:41 PM 31.2953 -82.5108 325° Northwest 146 168 10,000  Level Jacksonville Center
Sun 04:33:41 PM 31.3267 -82.5375 324° Northwest 146 168 10,000  Level Jacksonville Center
Sun 04:34:41 PM 31.3581 -82.5592 329° Northwest 146 168 10,000  Level Jacksonville Center
Sun 04:35:41 PM 31.3936 -82.5836 330° Northwest 146 168 10,000  Level Jacksonville Center
Sun 04:36:41 PM 31.4231 -82.6125 320° Northwest 146 168 10,000  Level Jacksonville Center
Sun 04:37:41 PM 31.4586 -82.6369 330° Northwest 146 168 10,000  Level Jacksonville Center
Sun 04:38:41 PM 31.4897 -82.6661 321° Northwest 146 168 10,000  Level Jacksonville Center
Sun 04:39:41 PM 31.5233 -82.6928 326° Northwest 146 168 10,000  Level Jacksonville Center
Sun 04:40:41 PM 31.5567 -82.7169 328° Northwest 146 168 10,000  Level Jacksonville Center
Sun 04:41:41 PM 31.5903 -82.7439 326° Northwest 146 168 10,000  Level Jacksonville Center
Sun 04:42:41 PM 31.6236 -82.7706 326° Northwest 146 168 10,000  Level Jacksonville Center
Sun 04:43:41 PM 31.6569 -82.7975 325° Northwest 146 168 10,000  Level Jacksonville Center
Sun 04:44:41 PM 31.6906 -82.8242 326° Northwest 146 168 10,000  Level Jacksonville Center
Sun 04:45:41 PM 31.7197 -82.8511 322° Northwest 146 168 10,000  Level Jacksonville Center
Sun 04:46:41 PM 31.7553 -82.8778 327° Northwest 146 168 10,000  Level Jacksonville Center
Sun 04:47:41 PM 31.7867 -82.9022 326° Northwest 146 168 10,000  Level Jacksonville Center
Sun 04:48:41 PM 31.8200 -82.9317 323° Northwest 146 168 10,000  Level Jacksonville Center
Sun 04:49:41 PM 31.8533 -82.9586 326° Northwest 146 168 10,000  Level Jacksonville Center
Sun 04:50:41 PM 31.8867 -82.9831 328° Northwest 146 168 10,000  Level Jacksonville Center
Sun 04:51:41 PM 31.9181 -83.0125 321° Northwest 146 168 10,000  Level Jacksonville Center
Sun 04:52:41 PM 31.9514 -83.0394 326° Northwest 146 168 10,000  Level Jacksonville Center
Sun 04:55:04 PM 32.0333 -83.1000 328° Northwest 150 173 10,000  Level Atlanta TRACON
Sun 04:56:04 PM 32.0667 -83.1333 320° Northwest 152 175 10,000  Level Atlanta TRACON
Sun 04:57:04 PM 32.1167 -83.1500 344° North 156 180 10,000  Level Atlanta TRACON
Sun 04:58:04 PM 32.1500 -83.1667 337° Northwest 153 176 10,000  Level Atlanta TRACON
Sun 04:59:04 PM 32.2000 -83.1833 344° North 157 181 10,000  Level Atlanta TRACON
Sun 05:00:04 PM 32.2333 -83.2000 337° Northwest 155 178 10,000  Level Atlanta TRACON
Sun 05:01:04 PM 32.2667 -83.2167 337° Northwest 157 181 10,000  Level Atlanta TRACON
Sun 05:02:04 PM 32.3167 -83.2333 344° North 156 180 10,000  Level Atlanta TRACON
Sun 05:03:04 PM 32.3500 -83.2500 337° Northwest 156 180 10,000  Level Atlanta TRACON
Sun 05:04:04 PM 32.4000 -83.2667 344° North 156 180 10,000  Level Atlanta TRACON
Sun 05:05:04 PM 32.4333 -83.2833 337° Northwest 156 180 10,000  Level Atlanta TRACON
Sun 05:06:10 PM 32.4833 -83.3000 344° North 155 178 10,000  Level Atlanta TRACON
Sun 05:07:04 PM 32.5167 -83.3167 337° Northwest 153 176 10,000  Level Atlanta TRACON
Sun 05:09:04 PM 32.6000 -83.3500 341° North 156 180 10,000  Level Atlanta TRACON
Sun 05:10:04 PM 32.6333 -83.3667 337° Northwest 158 182 10,000  Level Atlanta TRACON
Sun 05:11:04 PM 32.6833 -83.3667 360° North 158 182 10,000  Level Atlanta TRACON
Sun 05:12:04 PM 32.7167 -83.4000 320° Northwest 156 180 10,000  Level Atlanta TRACON
Sun 05:13:04 PM 32.7667 -83.4167 344° North 156 180 10,000  Level Atlanta TRACON
Sun 05:14:04 PM 32.8000 -83.4333 337° Northwest 156 180 10,000  Level Atlanta TRACON
Sun 05:15:04 PM 32.8500 -83.4333 360° North 157 181 10,000  Level Atlanta TRACON
Sun 05:16:04 PM 32.8833 -83.4667 320° Northwest 155 178 10,000  Level Atlanta TRACON
Sun 05:17:04 PM 32.9167 -83.4833 337° Northwest 157 181 10,000  Level Atlanta TRACON
Sun 05:18:04 PM 32.9667 -83.5000 344° North 156 180 10,000 -250 Level Atlanta TRACON
Sun 05:19:04 PM 33.0000 -83.5167 337° Northwest 169 194 9,500 -524 Descending Atlanta TRACON
Sun 05:20:10 PM 33.0667 -83.5500 337° Northwest 180 207 8,900 -550 Descending Atlanta TRACON
Sun 05:21:04 PM 33.1000 -83.5667 337° Northwest 178 205 8,400 -526 Descending Atlanta TRACON
Sun 05:22:04 PM 33.1500 -83.5833 344° North 177 204 7,900 -550 Descending Atlanta TRACON
Sun 05:23:04 PM 33.2000 -83.6167 331° Northwest 180 207 7,300 -600 Descending Atlanta TRACON
Sun 05:24:04 PM 33.2333 -83.6333 337° Northwest 181 208 6,700 -550 Descending Atlanta TRACON
Sun 05:25:04 PM 33.2833 -83.6667 331° Northwest 178 205 6,200 -350 Descending Atlanta TRACON
Sun 05:26:04 PM 33.3333 -83.6833 344° North 168 193 6,000 -100 Descending Atlanta TRACON
Sun 05:27:04 PM 33.3667 -83.7167 320° Northwest 152 175 6,000  Level Atlanta TRACON
Sun 05:28:04 PM 33.4000 -83.7500 320° Northwest 156 180 6,000  Level Atlanta TRACON
Sun 05:29:10 PM 33.4333 -83.7833 320° Northwest 156 180 6,000  Level Atlanta TRACON
Sun 05:30:05 PM 33.4667 -83.8000 337° Northwest 155 178 6,000  Level Atlanta TRACON
Sun 05:31:11 PM 33.5000 -83.8333 320° Northwest 153 176 6,000  Level Atlanta TRACON
Sun 05:32:05 PM 33.5333 -83.8667 320° Northwest 161 185 6,000  Level Atlanta TRACON
Sun 05:33:11 PM 33.5833 -83.9000 331° Northwest 159 183 6,000 -143 Level Atlanta TRACON
Sun 05:34:11 PM 33.6167 -83.9333 320° Northwest 162 186 5,700 -350 Descending Atlanta TRACON
Sun 05:35:11 PM 33.6500 -83.9667 320° Northwest 174 200 5,300 -429 Descending Atlanta TRACON
Sun 05:36:17 PM 33.7000 -84.0000 331° Northwest 169 194 4,800 -450 Descending Atlanta TRACON
Sun 05:37:11 PM 33.7167 -84.0333 301° West 155 178 4,400 -389 Descending Atlanta TRACON
Sun 05:38:05 PM 33.7500 -84.0500 337° Northwest 162 186 4,100 -300 Descending Atlanta TRACON
Sun 05:39:11 PM 33.7833 -84.1000 309° West 154 177 3,800 -429 Descending Atlanta TRACON
Sun 05:40:11 PM 33.8000 -84.1500 292° West 158 182 3,200 -421 Descending Atlanta TRACON
Sun 05:41:05 PM 33.8167 -84.1833 301° West 155 178 3,000 -105 Descending Atlanta TRACON
Sun 05:42:05 PM 33.8500 -84.2333 309° West 153 176 3,000  Level Atlanta TRACON
Sun 05:43:05 PM 33.8667 -84.2833 292° West 148 170 3,000  Level Atlanta TRACON
Sun 05:44:05 PM 33.8833 -84.3167 301° West 144 166 3,000 50 Level Atlanta TRACON
Sun 05:45:05 PM 33.9000 -84.3667 292° West 144 166 3,100 50 Climbing Atlanta TRACON
Sun 05:46:05 PM 33.9167 -84.4000 301° West 141 162 3,100 -100 Level Atlanta TRACON
Sun 05:47:05 PM 33.9500 -84.4333 320° Northwest 151 174 2,900 -300 Descending Atlanta TRACON
Sun 05:48:05 PM 33.9833 -84.4833 309° West 147 169 2,500 -381 Descending Atlanta TRACON
Sun 05:49:11 PM 34.0000 -84.5167 301° West 138 159 2,100 -429 Descending Atlanta TRACON
Sun 05:50:11 PM 34.0167 -84.5500 301° West 100 115 1,600 -500 Descending Atlanta TRACON
Sun 05:52:00 PM 34.0000 -84.5833 270° West  Level FlightAware Approximate
Sun 05:59:00 PM 34.0132 -84.5971 270° West  Level Estimated

Login

Don't have an account? Register now (free) for customized features, flight alerts, and more!